sensor_id;sensor_type;location;lat;lon;timestamp;P1;durP1;ratioP1;P2;durP2;ratioP2
25531;SDS011;13429;48.816;9.118;2023-02-15T00:01:26;50.95;;;27.98;;
25531;SDS011;13429;48.816;9.118;2023-02-15T00:03:52;63.50;;;29.58;;
25531;SDS011;13429;48.816;9.118;2023-02-15T00:06:18;47.72;;;26.83;;
25531;SDS011;13429;48.816;9.118;2023-02-15T00:08:44;53.40;;;29.75;;
25531;SDS011;13429;48.816;9.118;2023-02-15T00:11:11;59.22;;;30.63;;
25531;SDS011;13429;48.816;9.118;2023-02-15T00:13:37;61.90;;;31.02;;
25531;SDS011;13429;48.816;9.118;2023-02-15T00:16:12;59.78;;;31.88;;
25531;SDS011;13429;48.816;9.118;2023-02-15T00:18:38;57.70;;;28.88;;
25531;SDS011;13429;48.816;9.118;2023-02-15T00:21:06;58.90;;;30.90;;
25531;SDS011;13429;48.816;9.118;2023-02-15T00:23:32;55.22;;;28.33;;
25531;SDS011;13429;48.816;9.118;2023-02-15T00:28:30;52.17;;;26.52;;
25531;SDS011;13429;48.816;9.118;2023-02-15T00:31:05;67.28;;;29.63;;
25531;SDS011;13429;48.816;9.118;2023-02-15T00:33:32;50.78;;;26.63;;
25531;SDS011;13429;48.816;9.118;2023-02-15T00:35:58;55.13;;;27.73;;
25531;SDS011;13429;48.816;9.118;2023-02-15T00:38:25;50.97;;;27.33;;
25531;SDS011;13429;48.816;9.118;2023-02-15T00:40:55;48.88;;;26.17;;
25531;SDS011;13429;48.816;9.118;2023-02-15T00:43:21;51.47;;;26.52;;
25531;SDS011;13429;48.816;9.118;2023-02-15T00:45:48;55.55;;;27.83;;
25531;SDS011;13429;48.816;9.118;2023-02-15T00:48:14;51.55;;;27.98;;
25531;SDS011;13429;48.816;9.118;2023-02-15T00:50:40;48.38;;;26.63;;
25531;SDS011;13429;48.816;9.118;2023-02-15T00:53:06;46.78;;;24.35;;
25531;SDS011;13429;48.816;9.118;2023-02-15T00:55:32;49.58;;;26.17;;
25531;SDS011;13429;48.816;9.118;2023-02-15T00:57:58;48.28;;;25.20;;
25531;SDS011;13429;48.816;9.118;2023-02-15T01:00:24;47.20;;;24.80;;
25531;SDS011;13429;48.816;9.118;2023-02-15T01:02:50;44.85;;;25.17;;
25531;SDS011;13429;48.816;9.118;2023-02-15T01:05:16;45.33;;;24.00;;
25531;SDS011;13429;48.816;9.118;2023-02-15T01:07:42;46.63;;;23.58;;
25531;SDS011;13429;48.816;9.118;2023-02-15T01:10:08;49.13;;;24.45;;
25531;SDS011;13429;48.816;9.118;2023-02-15T01:12:34;48.40;;;25.55;;
25531;SDS011;13429;48.816;9.118;2023-02-15T01:15:00;45.40;;;23.70;;
25531;SDS011;13429;48.816;9.118;2023-02-15T01:17:26;47.35;;;25.13;;
25531;SDS011;13429;48.816;9.118;2023-02-15T01:19:52;43.83;;;23.65;;
25531;SDS011;13429;48.816;9.118;2023-02-15T01:22:18;47.08;;;25.48;;
25531;SDS011;13429;48.816;9.118;2023-02-15T01:24:44;42.97;;;24.10;;
25531;SDS011;13429;48.816;9.118;2023-02-15T01:27:11;46.40;;;23.75;;
25531;SDS011;13429;48.816;9.118;2023-02-15T01:29:36;44.42;;;23.42;;
25531;SDS011;13429;48.816;9.118;2023-02-15T01:32:03;48.70;;;26.17;;
25531;SDS011;13429;48.816;9.118;2023-02-15T01:34:29;51.63;;;25.65;;
25531;SDS011;13429;48.816;9.118;2023-02-15T01:36:55;50.17;;;25.98;;
25531;SDS011;13429;48.816;9.118;2023-02-15T01:39:21;48.97;;;24.60;;
25531;SDS011;13429;48.816;9.118;2023-02-15T01:41:47;48.72;;;24.65;;
25531;SDS011;13429;48.816;9.118;2023-02-15T01:46:58;50.92;;;26.80;;
25531;SDS011;13429;48.816;9.118;2023-02-15T01:49:24;43.50;;;23.20;;
25531;SDS011;13429;48.816;9.118;2023-02-15T01:51:52;48.95;;;24.73;;
25531;SDS011;13429;48.816;9.118;2023-02-15T01:54:22;51.97;;;25.48;;
25531;SDS011;13429;48.816;9.118;2023-02-15T01:59:17;48.20;;;23.95;;
25531;SDS011;13429;48.816;9.118;2023-02-15T02:01:44;47.83;;;23.92;;
25531;SDS011;13429;48.816;9.118;2023-02-15T02:04:31;49.15;;;25.80;;
25531;SDS011;13429;48.816;9.118;2023-02-15T02:06:58;48.30;;;23.35;;
25531;SDS011;13429;48.816;9.118;2023-02-15T02:09:25;48.10;;;25.92;;
25531;SDS011;13429;48.816;9.118;2023-02-15T02:11:51;45.40;;;24.27;;
25531;SDS011;13429;48.816;9.118;2023-02-15T02:14:19;53.47;;;28.65;;
25531;SDS011;13429;48.816;9.118;2023-02-15T02:37:55;67.65;;;32.50;;
25531;SDS011;13429;48.816;9.118;2023-02-15T02:42:49;63.58;;;33.30;;
25531;SDS011;13429;48.816;9.118;2023-02-15T02:45:26;72.45;;;36.83;;
25531;SDS011;13429;48.816;9.118;2023-02-15T02:47:56;69.25;;;33.15;;
25531;SDS011;13429;48.816;9.118;2023-02-15T02:50:25;71.00;;;32.58;;
25531;SDS011;13429;48.816;9.118;2023-02-15T02:52:52;62.08;;;30.00;;
25531;SDS011;13429;48.816;9.118;2023-02-15T02:57:51;88.20;;;34.45;;
25531;SDS011;13429;48.816;9.118;2023-02-15T03:00:18;56.67;;;29.73;;
25531;SDS011;13429;48.816;9.118;2023-02-15T03:02:44;54.35;;;28.10;;
25531;SDS011;13429;48.816;9.118;2023-02-15T03:05:15;59.85;;;28.30;;
25531;SDS011;13429;48.816;9.118;2023-02-15T03:07:42;59.53;;;28.85;;
25531;SDS011;13429;48.816;9.118;2023-02-15T03:10:14;48.25;;;25.65;;
25531;SDS011;13429;48.816;9.118;2023-02-15T03:12:40;68.85;;;30.23;;
25531;SDS011;13429;48.816;9.118;2023-02-15T03:15:08;60.80;;;27.67;;
25531;SDS011;13429;48.816;9.118;2023-02-15T03:17:37;50.90;;;26.52;;
25531;SDS011;13429;48.816;9.118;2023-02-15T03:20:06;54.17;;;28.55;;
25531;SDS011;13429;48.816;9.118;2023-02-15T03:22:34;74.15;;;28.35;;
25531;SDS011;13429;48.816;9.118;2023-02-15T03:27:31;52.88;;;27.10;;
25531;SDS011;13429;48.816;9.118;2023-02-15T03:29:58;48.13;;;25.50;;
25531;SDS011;13429;48.816;9.118;2023-02-15T03:32:25;47.58;;;25.13;;
25531;SDS011;13429;48.816;9.118;2023-02-15T03:34:53;64.03;;;27.50;;
25531;SDS011;13429;48.816;9.118;2023-02-15T03:37:28;52.53;;;26.90;;
25531;SDS011;13429;48.816;9.118;2023-02-15T03:39:56;53.58;;;26.80;;
25531;SDS011;13429;48.816;9.118;2023-02-15T03:42:44;48.10;;;26.55;;
25531;SDS011;13429;48.816;9.118;2023-02-15T03:45:11;51.85;;;26.17;;
25531;SDS011;13429;48.816;9.118;2023-02-15T03:47:42;49.50;;;25.48;;
25531;SDS011;13429;48.816;9.118;2023-02-15T03:50:16;51.33;;;25.77;;
25531;SDS011;13429;48.816;9.118;2023-02-15T03:53:02;102.35;;;31.90;;
25531;SDS011;13429;48.816;9.118;2023-02-15T03:55:30;51.92;;;26.30;;
25531;SDS011;13429;48.816;9.118;2023-02-15T03:57:56;60.10;;;27.63;;
25531;SDS011;13429;48.816;9.118;2023-02-15T04:00:43;57.97;;;27.05;;
25531;SDS011;13429;48.816;9.118;2023-02-15T04:03:33;67.85;;;28.02;;
25531;SDS011;13429;48.816;9.118;2023-02-15T04:06:02;57.03;;;25.20;;
25531;SDS011;13429;48.816;9.118;2023-02-15T04:08:28;89.95;;;30.42;;
25531;SDS011;13429;48.816;9.118;2023-02-15T04:11:13;49.72;;;24.73;;
25531;SDS011;13429;48.816;9.118;2023-02-15T04:13:39;42.53;;;24.40;;
25531;SDS011;13429;48.816;9.118;2023-02-15T04:16:05;47.35;;;26.08;;
25531;SDS011;13429;48.816;9.118;2023-02-15T04:18:32;53.08;;;25.40;;
25531;SDS011;13429;48.816;9.118;2023-02-15T04:21:17;41.90;;;23.65;;
25531;SDS011;13429;48.816;9.118;2023-02-15T04:24:02;48.65;;;23.75;;
25531;SDS011;13429;48.816;9.118;2023-02-15T04:26:46;42.97;;;24.25;;
25531;SDS011;13429;48.816;9.118;2023-02-15T04:29:13;40.13;;;23.58;;
25531;SDS011;13429;48.816;9.118;2023-02-15T04:31:39;42.10;;;23.42;;
25531;SDS011;13429;48.816;9.118;2023-02-15T04:34:05;100.30;;;27.55;;
25531;SDS011;13429;48.816;9.118;2023-02-15T04:36:31;45.30;;;23.90;;
25531;SDS011;13429;48.816;9.118;2023-02-15T04:38:57;44.30;;;23.75;;
25531;SDS011;13429;48.816;9.118;2023-02-15T04:41:23;60.80;;;26.02;;
25531;SDS011;13429;48.816;9.118;2023-02-15T04:43:49;43.78;;;24.35;;
25531;SDS011;13429;48.816;9.118;2023-02-15T04:46:15;43.45;;;23.48;;
25531;SDS011;13429;48.816;9.118;2023-02-15T04:48:41;44.55;;;24.05;;
25531;SDS011;13429;48.816;9.118;2023-02-15T04:53:56;48.83;;;25.10;;
25531;SDS011;13429;48.816;9.118;2023-02-15T04:56:22;42.55;;;23.10;;
25531;SDS011;13429;48.816;9.118;2023-02-15T04:58:48;54.45;;;24.58;;
25531;SDS011;13429;48.816;9.118;2023-02-15T05:01:14;56.50;;;26.55;;
25531;SDS011;13429;48.816;9.118;2023-02-15T05:03:40;47.33;;;26.13;;
25531;SDS011;13429;48.816;9.118;2023-02-15T05:06:06;48.65;;;26.17;;
25531;SDS011;13429;48.816;9.118;2023-02-15T05:08:32;60.08;;;27.15;;
25531;SDS011;13429;48.816;9.118;2023-02-15T05:10:58;47.17;;;25.30;;
25531;SDS011;13429;48.816;9.118;2023-02-15T05:13:24;71.65;;;27.70;;
25531;SDS011;13429;48.816;9.118;2023-02-15T05:15:51;117.38;;;29.85;;
25531;SDS011;13429;48.816;9.118;2023-02-15T05:18:18;45.78;;;23.92;;
25531;SDS011;13429;48.816;9.118;2023-02-15T05:20:44;49.63;;;26.50;;
25531;SDS011;13429;48.816;9.118;2023-02-15T05:23:10;40.60;;;23.58;;
25531;SDS011;13429;48.816;9.118;2023-02-15T05:25:36;47.10;;;23.60;;
25531;SDS011;13429;48.816;9.118;2023-02-15T05:28:21;53.78;;;24.63;;
25531;SDS011;13429;48.816;9.118;2023-02-15T05:30:59;40.25;;;22.75;;
25531;SDS011;13429;48.816;9.118;2023-02-15T05:33:27;42.33;;;22.27;;
25531;SDS011;13429;48.816;9.118;2023-02-15T05:35:53;39.25;;;22.13;;
25531;SDS011;13429;48.816;9.118;2023-02-15T05:38:19;43.38;;;24.42;;
25531;SDS011;13429;48.816;9.118;2023-02-15T05:40:45;38.42;;;22.67;;
25531;SDS011;13429;48.816;9.118;2023-02-15T05:43:11;42.63;;;23.92;;
25531;SDS011;13429;48.816;9.118;2023-02-15T05:45:37;39.88;;;22.98;;
25531;SDS011;13429;48.816;9.118;2023-02-15T05:48:03;56.13;;;25.42;;
25531;SDS011;13429;48.816;9.118;2023-02-15T05:50:29;44.90;;;23.92;;
25531;SDS011;13429;48.816;9.118;2023-02-15T05:52:55;39.35;;;22.35;;
25531;SDS011;13429;48.816;9.118;2023-02-15T05:55:21;40.33;;;22.40;;
25531;SDS011;13429;48.816;9.118;2023-02-15T05:57:48;39.33;;;22.40;;
25531;SDS011;13429;48.816;9.118;2023-02-15T06:00:14;44.17;;;22.85;;
25531;SDS011;13429;48.816;9.118;2023-02-15T06:02:40;38.28;;;21.48;;
25531;SDS011;13429;48.816;9.118;2023-02-15T06:05:06;39.22;;;21.35;;
25531;SDS011;13429;48.816;9.118;2023-02-15T06:07:32;39.47;;;21.15;;
25531;SDS011;13429;48.816;9.118;2023-02-15T06:09:58;50.85;;;23.20;;
25531;SDS011;13429;48.816;9.118;2023-02-15T06:12:24;38.78;;;21.60;;
25531;SDS011;13429;48.816;9.118;2023-02-15T06:14:50;46.50;;;23.63;;
25531;SDS011;13429;48.816;9.118;2023-02-15T06:17:16;36.22;;;21.52;;
25531;SDS011;13429;48.816;9.118;2023-02-15T06:19:43;34.78;;;21.90;;
25531;SDS011;13429;48.816;9.118;2023-02-15T06:22:08;41.80;;;22.30;;
25531;SDS011;13429;48.816;9.118;2023-02-15T06:24:35;41.17;;;23.05;;
25531;SDS011;13429;48.816;9.118;2023-02-15T06:27:01;44.78;;;22.25;;
25531;SDS011;13429;48.816;9.118;2023-02-15T06:29:27;39.88;;;22.90;;
25531;SDS011;13429;48.816;9.118;2023-02-15T06:31:53;42.63;;;22.95;;
25531;SDS011;13429;48.816;9.118;2023-02-15T06:34:19;62.13;;;25.08;;
25531;SDS011;13429;48.816;9.118;2023-02-15T06:36:45;41.92;;;24.10;;
25531;SDS011;13429;48.816;9.118;2023-02-15T06:39:11;44.60;;;23.23;;
25531;SDS011;13429;48.816;9.118;2023-02-15T06:41:37;38.53;;;22.67;;
25531;SDS011;13429;48.816;9.118;2023-02-15T06:44:03;53.05;;;23.75;;
25531;SDS011;13429;48.816;9.118;2023-02-15T06:46:29;40.30;;;22.33;;
25531;SDS011;13429;48.816;9.118;2023-02-15T06:48:55;69.35;;;25.23;;
25531;SDS011;13429;48.816;9.118;2023-02-15T06:51:21;39.65;;;22.25;;
25531;SDS011;13429;48.816;9.118;2023-02-15T06:53:47;38.47;;;21.65;;
25531;SDS011;13429;48.816;9.118;2023-02-15T06:56:13;39.72;;;22.63;;
25531;SDS011;13429;48.816;9.118;2023-02-15T06:58:39;40.30;;;22.23;;
25531;SDS011;13429;48.816;9.118;2023-02-15T07:01:06;36.63;;;21.52;;
25531;SDS011;13429;48.816;9.118;2023-02-15T07:03:32;40.58;;;22.55;;
25531;SDS011;13429;48.816;9.118;2023-02-15T07:05:59;38.35;;;21.58;;
25531;SDS011;13429;48.816;9.118;2023-02-15T07:08:26;42.33;;;22.98;;
25531;SDS011;13429;48.816;9.118;2023-02-15T07:10:53;39.33;;;21.92;;
25531;SDS011;13429;48.816;9.118;2023-02-15T07:13:19;36.65;;;20.27;;
25531;SDS011;13429;48.816;9.118;2023-02-15T07:15:46;38.30;;;22.30;;
25531;SDS011;13429;48.816;9.118;2023-02-15T07:18:12;51.00;;;22.05;;
25531;SDS011;13429;48.816;9.118;2023-02-15T07:20:39;40.22;;;22.55;;
25531;SDS011;13429;48.816;9.118;2023-02-15T07:23:06;45.20;;;23.40;;
25531;SDS011;13429;48.816;9.118;2023-02-15T07:25:33;109.72;;;26.67;;
25531;SDS011;13429;48.816;9.118;2023-02-15T07:28:00;86.22;;;25.15;;
25531;SDS011;13429;48.816;9.118;2023-02-15T07:30:27;38.17;;;22.23;;
25531;SDS011;13429;48.816;9.118;2023-02-15T07:32:56;41.42;;;22.17;;
25531;SDS011;13429;48.816;9.118;2023-02-15T07:35:52;50.50;;;24.38;;
25531;SDS011;13429;48.816;9.118;2023-02-15T07:38:19;45.55;;;25.08;;
25531;SDS011;13429;48.816;9.118;2023-02-15T07:40:45;47.42;;;24.10;;
25531;SDS011;13429;48.816;9.118;2023-02-15T07:43:12;38.63;;;22.88;;
25531;SDS011;13429;48.816;9.118;2023-02-15T07:45:38;66.53;;;25.45;;
25531;SDS011;13429;48.816;9.118;2023-02-15T07:48:05;40.35;;;23.92;;
25531;SDS011;13429;48.816;9.118;2023-02-15T07:50:31;41.00;;;23.02;;
25531;SDS011;13429;48.816;9.118;2023-02-15T07:52:57;44.97;;;24.20;;
25531;SDS011;13429;48.816;9.118;2023-02-15T07:55:23;44.60;;;25.05;;
25531;SDS011;13429;48.816;9.118;2023-02-15T07:57:50;46.47;;;24.70;;
25531;SDS011;13429;48.816;9.118;2023-02-15T08:00:17;64.45;;;28.77;;
25531;SDS011;13429;48.816;9.118;2023-02-15T08:02:50;70.10;;;26.15;;
25531;SDS011;13429;48.816;9.118;2023-02-15T08:05:36;51.47;;;26.27;;
25531;SDS011;13429;48.816;9.118;2023-02-15T08:08:02;63.97;;;28.40;;
25531;SDS011;13429;48.816;9.118;2023-02-15T08:10:28;64.15;;;32.75;;
25531;SDS011;13429;48.816;9.118;2023-02-15T08:13:13;52.15;;;26.05;;
25531;SDS011;13429;48.816;9.118;2023-02-15T08:15:39;55.97;;;27.35;;
25531;SDS011;13429;48.816;9.118;2023-02-15T08:18:05;62.78;;;27.33;;
25531;SDS011;13429;48.816;9.118;2023-02-15T08:20:31;119.30;;;52.88;;
25531;SDS011;13429;48.816;9.118;2023-02-15T08:22:57;67.38;;;27.73;;
25531;SDS011;13429;48.816;9.118;2023-02-15T08:25:23;82.13;;;38.20;;
25531;SDS011;13429;48.816;9.118;2023-02-15T08:27:49;73.50;;;31.20;;
25531;SDS011;13429;48.816;9.118;2023-02-15T08:30:15;48.20;;;24.20;;
25531;SDS011;13429;48.816;9.118;2023-02-15T08:32:41;47.90;;;25.17;;
25531;SDS011;13429;48.816;9.118;2023-02-15T08:35:07;98.45;;;28.45;;
25531;SDS011;13429;48.816;9.118;2023-02-15T08:37:33;40.92;;;22.80;;
25531;SDS011;13429;48.816;9.118;2023-02-15T08:39:59;44.90;;;24.05;;
25531;SDS011;13429;48.816;9.118;2023-02-15T08:42:27;45.13;;;24.75;;
25531;SDS011;13429;48.816;9.118;2023-02-15T08:44:53;48.97;;;25.38;;
25531;SDS011;13429;48.816;9.118;2023-02-15T08:47:19;51.78;;;25.73;;
25531;SDS011;13429;48.816;9.118;2023-02-15T08:49:45;45.50;;;25.00;;
25531;SDS011;13429;48.816;9.118;2023-02-15T08:52:11;50.80;;;24.83;;
25531;SDS011;13429;48.816;9.118;2023-02-15T08:54:37;49.78;;;25.88;;
25531;SDS011;13429;48.816;9.118;2023-02-15T08:57:03;42.60;;;22.95;;
25531;SDS011;13429;48.816;9.118;2023-02-15T08:59:29;46.35;;;24.58;;
25531;SDS011;13429;48.816;9.118;2023-02-15T09:01:55;38.33;;;23.05;;
25531;SDS011;13429;48.816;9.118;2023-02-15T09:04:21;40.72;;;23.33;;
25531;SDS011;13429;48.816;9.118;2023-02-15T09:06:48;49.03;;;24.55;;
25531;SDS011;13429;48.816;9.118;2023-02-15T09:09:15;44.15;;;24.88;;
25531;SDS011;13429;48.816;9.118;2023-02-15T09:11:42;46.85;;;24.27;;
25531;SDS011;13429;48.816;9.118;2023-02-15T09:14:12;46.78;;;24.40;;
25531;SDS011;13429;48.816;9.118;2023-02-15T09:19:05;53.30;;;26.63;;
25531;SDS011;13429;48.816;9.118;2023-02-15T09:21:32;45.00;;;25.02;;
25531;SDS011;13429;48.816;9.118;2023-02-15T09:24:00;44.55;;;24.75;;
25531;SDS011;13429;48.816;9.118;2023-02-15T09:26:27;53.25;;;25.60;;
25531;SDS011;13429;48.816;9.118;2023-02-15T09:28:55;41.95;;;23.15;;
25531;SDS011;13429;48.816;9.118;2023-02-15T09:31:22;46.60;;;23.58;;
25531;SDS011;13429;48.816;9.118;2023-02-15T09:33:48;50.45;;;26.05;;
25531;SDS011;13429;48.816;9.118;2023-02-15T09:36:24;41.83;;;22.92;;
25531;SDS011;13429;48.816;9.118;2023-02-15T09:39:33;42.70;;;24.00;;
25531;SDS011;13429;48.816;9.118;2023-02-15T09:52:15;45.72;;;26.80;;
25531;SDS011;13429;48.816;9.118;2023-02-15T09:55:08;50.20;;;25.25;;
25531;SDS011;13429;48.816;9.118;2023-02-15T09:57:36;41.53;;;24.90;;
25531;SDS011;13429;48.816;9.118;2023-02-15T10:02:50;42.40;;;24.08;;
25531;SDS011;13429;48.816;9.118;2023-02-15T10:15:19;46.55;;;26.80;;
25531;SDS011;13429;48.816;9.118;2023-02-15T10:25:34;49.90;;;27.00;;
25531;SDS011;13429;48.816;9.118;2023-02-15T10:28:05;52.70;;;29.85;;
25531;SDS011;13429;48.816;9.118;2023-02-15T10:50:50;56.80;;;30.50;;
25531;SDS011;13429;48.816;9.118;2023-02-15T10:53:30;59.08;;;30.80;;
25531;SDS011;13429;48.816;9.118;2023-02-15T11:01:18;58.55;;;32.75;;
25531;SDS011;13429;48.816;9.118;2023-02-15T11:06:33;52.90;;;30.58;;
25531;SDS011;13429;48.816;9.118;2023-02-15T11:09:01;55.28;;;31.40;;
25531;SDS011;13429;48.816;9.118;2023-02-15T11:11:29;60.95;;;32.50;;
25531;SDS011;13429;48.816;9.118;2023-02-15T11:13:58;58.75;;;32.20;;
25531;SDS011;13429;48.816;9.118;2023-02-15T11:16:27;52.22;;;30.73;;
25531;SDS011;13429;48.816;9.118;2023-02-15T11:19:03;60.88;;;33.75;;
25531;SDS011;13429;48.816;9.118;2023-02-15T11:21:33;64.63;;;35.70;;
25531;SDS011;13429;48.816;9.118;2023-02-15T11:24:10;57.22;;;33.05;;
25531;SDS011;13429;48.816;9.118;2023-02-15T11:26:39;62.72;;;36.10;;
25531;SDS011;13429;48.816;9.118;2023-02-15T11:31:41;56.03;;;30.40;;
25531;SDS011;13429;48.816;9.118;2023-02-15T11:34:15;56.55;;;33.03;;
25531;SDS011;13429;48.816;9.118;2023-02-15T11:36:42;60.97;;;32.20;;
25531;SDS011;13429;48.816;9.118;2023-02-15T11:39:10;58.88;;;33.50;;
25531;SDS011;13429;48.816;9.118;2023-02-15T11:41:50;63.30;;;35.95;;
25531;SDS011;13429;48.816;9.118;2023-02-15T11:44:23;53.20;;;32.53;;
25531;SDS011;13429;48.816;9.118;2023-02-15T11:46:51;55.80;;;31.73;;
25531;SDS011;13429;48.816;9.118;2023-02-15T11:49:21;52.00;;;32.08;;
25531;SDS011;13429;48.816;9.118;2023-02-15T11:51:48;52.85;;;30.77;;
25531;SDS011;13429;48.816;9.118;2023-02-15T11:54:16;57.33;;;33.08;;
25531;SDS011;13429;48.816;9.118;2023-02-15T11:56:43;50.20;;;29.92;;
25531;SDS011;13429;48.816;9.118;2023-02-15T11:59:10;52.78;;;31.75;;
25531;SDS011;13429;48.816;9.118;2023-02-15T12:01:41;54.03;;;32.78;;
25531;SDS011;13429;48.816;9.118;2023-02-15T12:06:44;55.00;;;34.47;;
25531;SDS011;13429;48.816;9.118;2023-02-15T12:11:42;66.07;;;32.22;;
25531;SDS011;13429;48.816;9.118;2023-02-15T12:14:08;49.92;;;28.17;;
25531;SDS011;13429;48.816;9.118;2023-02-15T12:16:41;52.28;;;29.30;;
25531;SDS011;13429;48.816;9.118;2023-02-15T12:19:13;49.13;;;28.98;;
25531;SDS011;13429;48.816;9.118;2023-02-15T12:21:44;52.30;;;30.38;;
25531;SDS011;13429;48.816;9.118;2023-02-15T12:24:18;50.65;;;29.67;;
25531;SDS011;13429;48.816;9.118;2023-02-15T12:27:28;41.83;;;27.25;;
25531;SDS011;13429;48.816;9.118;2023-02-15T12:29:41;53.70;;;29.80;;
25531;SDS011;13429;48.816;9.118;2023-02-15T12:32:16;45.08;;;27.70;;
25531;SDS011;13429;48.816;9.118;2023-02-15T12:34:43;52.05;;;29.00;;
25531;SDS011;13429;48.816;9.118;2023-02-15T12:37:15;44.20;;;27.45;;
25531;SDS011;13429;48.816;9.118;2023-02-15T12:42:18;50.13;;;27.67;;
25531;SDS011;13429;48.816;9.118;2023-02-15T12:44:57;53.92;;;29.63;;
25531;SDS011;13429;48.816;9.118;2023-02-15T12:47:23;43.90;;;26.85;;
25531;SDS011;13429;48.816;9.118;2023-02-15T12:52:41;46.85;;;28.02;;
25531;SDS011;13429;48.816;9.118;2023-02-15T12:55:27;46.78;;;27.52;;
25531;SDS011;13429;48.816;9.118;2023-02-15T13:03:29;47.60;;;24.83;;
25531;SDS011;13429;48.816;9.118;2023-02-15T13:05:56;43.55;;;27.60;;
25531;SDS011;13429;48.816;9.118;2023-02-15T13:13:22;44.25;;;28.23;;
25531;SDS011;13429;48.816;9.118;2023-02-15T13:15:50;48.38;;;27.38;;
25531;SDS011;13429;48.816;9.118;2023-02-15T13:18:18;45.42;;;28.10;;
25531;SDS011;13429;48.816;9.118;2023-02-15T13:20:49;46.33;;;28.02;;
25531;SDS011;13429;48.816;9.118;2023-02-15T13:23:24;40.15;;;24.85;;
25531;SDS011;13429;48.816;9.118;2023-02-15T13:25:52;46.50;;;29.90;;
25531;SDS011;13429;48.816;9.118;2023-02-15T13:28:20;44.85;;;27.88;;
25531;SDS011;13429;48.816;9.118;2023-02-15T13:30:48;43.90;;;25.98;;
25531;SDS011;13429;48.816;9.118;2023-02-15T13:35:55;45.60;;;25.45;;
25531;SDS011;13429;48.816;9.118;2023-02-15T13:41:09;39.92;;;25.38;;
25531;SDS011;13429;48.816;9.118;2023-02-15T13:46:34;43.33;;;28.33;;
25531;SDS011;13429;48.816;9.118;2023-02-15T13:51:54;37.88;;;23.48;;
25531;SDS011;13429;48.816;9.118;2023-02-15T14:12:55;41.40;;;26.73;;
25531;SDS011;13429;48.816;9.118;2023-02-15T14:17:56;36.15;;;23.40;;
25531;SDS011;13429;48.816;9.118;2023-02-15T14:22:53;34.60;;;20.88;;
25531;SDS011;13429;48.816;9.118;2023-02-15T14:30:26;26.98;;;17.15;;
25531;SDS011;13429;48.816;9.118;2023-02-15T14:32:55;32.22;;;18.88;;
25531;SDS011;13429;48.816;9.118;2023-02-15T14:35:27;29.88;;;16.92;;
25531;SDS011;13429;48.816;9.118;2023-02-15T14:38:07;31.88;;;17.45;;
25531;SDS011;13429;48.816;9.118;2023-02-15T14:40:43;22.15;;;13.77;;
25531;SDS011;13429;48.816;9.118;2023-02-15T14:48:48;26.05;;;15.20;;
25531;SDS011;13429;48.816;9.118;2023-02-15T14:54:00;30.23;;;16.63;;
25531;SDS011;13429;48.816;9.118;2023-02-15T14:56:26;28.20;;;17.77;;
25531;SDS011;13429;48.816;9.118;2023-02-15T15:01:25;29.38;;;17.65;;
25531;SDS011;13429;48.816;9.118;2023-02-15T15:03:53;28.98;;;18.35;;
25531;SDS011;13429;48.816;9.118;2023-02-15T15:06:34;30.35;;;18.60;;
25531;SDS011;13429;48.816;9.118;2023-02-15T15:09:09;28.17;;;17.92;;
25531;SDS011;13429;48.816;9.118;2023-02-15T15:11:37;30.50;;;17.45;;
25531;SDS011;13429;48.816;9.118;2023-02-15T15:14:03;28.77;;;17.50;;
25531;SDS011;13429;48.816;9.118;2023-02-15T15:16:33;27.58;;;16.70;;
25531;SDS011;13429;48.816;9.118;2023-02-15T15:19:12;32.60;;;18.88;;
25531;SDS011;13429;48.816;9.118;2023-02-15T15:22:01;31.33;;;17.30;;
25531;SDS011;13429;48.816;9.118;2023-02-15T15:29:48;31.17;;;18.52;;
25531;SDS011;13429;48.816;9.118;2023-02-15T15:32:14;35.78;;;18.70;;
25531;SDS011;13429;48.816;9.118;2023-02-15T15:43:24;31.05;;;19.00;;
25531;SDS011;13429;48.816;9.118;2023-02-15T15:46:02;33.88;;;19.98;;
25531;SDS011;13429;48.816;9.118;2023-02-15T15:51:04;31.00;;;18.15;;
25531;SDS011;13429;48.816;9.118;2023-02-15T15:53:33;35.33;;;20.70;;
25531;SDS011;13429;48.816;9.118;2023-02-15T15:56:04;37.65;;;20.02;;
25531;SDS011;13429;48.816;9.118;2023-02-15T15:58:31;33.80;;;20.92;;
25531;SDS011;13429;48.816;9.118;2023-02-15T16:01:04;40.72;;;23.45;;
25531;SDS011;13429;48.816;9.118;2023-02-15T16:03:32;44.53;;;22.20;;
25531;SDS011;13429;48.816;9.118;2023-02-15T16:05:58;41.28;;;25.00;;
25531;SDS011;13429;48.816;9.118;2023-02-15T16:08:29;37.97;;;23.92;;
25531;SDS011;13429;48.816;9.118;2023-02-15T16:10:55;37.92;;;23.83;;
25531;SDS011;13429;48.816;9.118;2023-02-15T16:13:22;37.65;;;24.85;;
25531;SDS011;13429;48.816;9.118;2023-02-15T16:15:50;43.00;;;24.67;;
25531;SDS011;13429;48.816;9.118;2023-02-15T16:18:18;42.47;;;26.00;;
25531;SDS011;13429;48.816;9.118;2023-02-15T16:20:48;41.50;;;26.83;;
25531;SDS011;13429;48.816;9.118;2023-02-15T16:26:01;43.20;;;26.23;;
25531;SDS011;13429;48.816;9.118;2023-02-15T16:28:31;46.60;;;28.20;;
25531;SDS011;13429;48.816;9.118;2023-02-15T16:31:10;47.20;;;28.90;;
25531;SDS011;13429;48.816;9.118;2023-02-15T16:33:38;48.22;;;27.70;;
25531;SDS011;13429;48.816;9.118;2023-02-15T16:36:04;53.05;;;27.90;;
25531;SDS011;13429;48.816;9.118;2023-02-15T16:41:08;45.03;;;26.52;;
25531;SDS011;13429;48.816;9.118;2023-02-15T16:43:34;39.75;;;24.80;;
25531;SDS011;13429;48.816;9.118;2023-02-15T16:46:06;41.33;;;26.13;;
25531;SDS011;13429;48.816;9.118;2023-02-15T16:48:33;43.10;;;26.02;;
25531;SDS011;13429;48.816;9.118;2023-02-15T16:51:08;46.30;;;27.15;;
25531;SDS011;13429;48.816;9.118;2023-02-15T16:53:34;50.08;;;28.13;;
25531;SDS011;13429;48.816;9.118;2023-02-15T16:56:02;49.05;;;29.25;;
25531;SDS011;13429;48.816;9.118;2023-02-15T16:58:32;51.33;;;29.58;;
25531;SDS011;13429;48.816;9.118;2023-02-15T17:01:02;52.20;;;32.58;;
25531;SDS011;13429;48.816;9.118;2023-02-15T17:03:29;62.47;;;33.95;;
25531;SDS011;13429;48.816;9.118;2023-02-15T17:05:59;48.55;;;30.13;;
25531;SDS011;13429;48.816;9.118;2023-02-15T17:13:24;57.58;;;33.80;;
25531;SDS011;13429;48.816;9.118;2023-02-15T17:18:32;51.38;;;30.75;;
25531;SDS011;13429;48.816;9.118;2023-02-15T17:21:01;51.58;;;31.40;;
25531;SDS011;13429;48.816;9.118;2023-02-15T17:23:47;54.65;;;30.85;;
25531;SDS011;13429;48.816;9.118;2023-02-15T17:26:15;52.25;;;30.38;;
25531;SDS011;13429;48.816;9.118;2023-02-15T17:29:46;50.25;;;29.70;;
25531;SDS011;13429;48.816;9.118;2023-02-15T17:31:39;50.10;;;30.05;;
25531;SDS011;13429;48.816;9.118;2023-02-15T17:34:05;49.72;;;30.40;;
25531;SDS011;13429;48.816;9.118;2023-02-15T17:36:31;61.70;;;32.38;;
25531;SDS011;13429;48.816;9.118;2023-02-15T17:43:52;54.20;;;30.40;;
25531;SDS011;13429;48.816;9.118;2023-02-15T17:46:18;53.88;;;31.42;;
25531;SDS011;13429;48.816;9.118;2023-02-15T17:48:48;56.08;;;32.95;;
25531;SDS011;13429;48.816;9.118;2023-02-15T17:51:14;55.55;;;32.10;;
25531;SDS011;13429;48.816;9.118;2023-02-15T17:53:41;49.30;;;30.05;;
25531;SDS011;13429;48.816;9.118;2023-02-15T17:56:31;53.15;;;32.42;;
25531;SDS011;13429;48.816;9.118;2023-02-15T17:58:57;58.88;;;31.92;;
25531;SDS011;13429;48.816;9.118;2023-02-15T18:01:23;54.55;;;32.42;;